This is the latest recevied weather packets stored in our database for station/object W1HS. If no packets are shown the sender has not sent any weather packets the latest 1 day(s).
| Time | Temp. | Humidity | Pressure | Rain* | Wind** | Luminosity | Snow |
|---|---|---|---|---|---|---|---|
| 1778019798 | 18.89° C | 70% | 986.5 hPa | 0 mm | 0.45 m/s, 315° | 18 W/m² | - |
| 1778019200 | 18.89° C | 69% | 986.1 hPa | 0 mm | 0.45 m/s, 315° | 33 W/m² | - |
| 1778018599 | 19.44° C | 65% | 985.9 hPa | 0 mm | 0.89 m/s, 293° | 11 W/m² | - |
| 1778017998 | 20° C | 64% | 985.4 hPa | 0 mm | 1.34 m/s, 23° | 47 W/m² | - |
| 1778017398 | 20° C | 62% | 985.8 hPa | 0 mm | 4.02 m/s, 293° | 130 W/m² | - |
| 1778016799 | 19.44° C | 64% | 985.4 hPa | 0 mm | 1.34 m/s, 293° | 489 W/m² | - |
| 1778016198 | 20° C | 61% | 985.8 hPa | 0 mm | 0.45 m/s, 270° | 23 W/m² | - |
| 1778015598 | 21.11° C | 55% | 985.7 hPa | 0 mm | 3.58 m/s, 315° | 30 W/m² | - |
| 1778015000 | 25° C | 38% | 985.7 hPa | 0 mm | 5.36 m/s, 293° | 18 W/m² | - |
| 1778014473 | 25.56° C | 35% | 984.5 hPa | 0 mm | 6.71 m/s, 225° | 88 W/m² | - |
| 1778014038 | 25.56° C | 34% | 984.3 hPa | 0 mm | 5.36 m/s, 248° | 178 W/m² | - |
| 1778013446 | 26.11° C | 34% | 984.1 hPa | 0 mm | 4.92 m/s, 248° | 461 W/m² | - |
| 1778012840 | 26.11° C | 33% | 984.1 hPa | 0 mm | 4.92 m/s, 203° | 241 W/m² | - |
| 1778012245 | 26.11° C | 33% | 984.1 hPa | 0 mm | 6.71 m/s, 225° | 431 W/m² | - |
| 1778011641 | 26.11° C | 33% | 984.4 hPa | 0 mm | 5.81 m/s, 248° | 392 W/m² | - |
| 1778011040 | 26.11° C | 33% | 984.5 hPa | 0 mm | 5.36 m/s, 203° | 309 W/m² | - |
| 1778010439 | 26.11° C | 35% | 984.5 hPa | 0 mm | 7.6 m/s, 225° | 469 W/m² | - |
| 1778009838 | 26.11° C | 32% | 984.6 hPa | 0 mm | 5.81 m/s, 248° | 271 W/m² | - |
| 1778009242 | 26.11° C | 32% | 984.8 hPa | 0 mm | 6.26 m/s, 225° | 733 W/m² | - |
| 1778008640 | 26.11° C | 33% | 984.9 hPa | 0 mm | 6.71 m/s, 248° | 459 W/m² | - |
| 1778008038 | 26.11° C | 33% | 984.9 hPa | 0 mm | 6.26 m/s, 225° | 239 W/m² | - |
| 1778007440 | 26.11° C | 34% | 984.8 hPa | 0 mm | 6.26 m/s, 248° | 246 W/m² | - |
| 1778006909 | 25.56° C | 38% | 985 hPa | 0 mm | 4.47 m/s, 225° | 279 W/m² | - |
| 1778006420 | 25.56° C | 38% | 985 hPa | 0 mm | 5.81 m/s, 225° | 276 W/m² | - |
| 1778005820 | 25.56° C | 37% | 985.1 hPa | 0 mm | 3.58 m/s, 180° | 373 W/m² | - |
* Rain latest hour (hover to see other rain measurements)
** Current wind speed in m/s (hover to see current wind gust speed)